Главная страница
METAR-TAF:

METAR-TAF

Аэропорты :

Молде, Норвегия

широта: 62-45N, долгота: 007-16E, высота над уровнем моря: 0 м

Текущие метеонаблюдения

Эта сводка был подготовлена 28 минут назад, в 14:50 UTC
Ветер 10 Узел от западный, изменяющийся между западный и северо-западный
Температура 20°C
Влажность 49%
Давление 1008 hPa
Видимость 10 км и более

METAR: ENML 221450Z AUTO 28010KT 260V320 9999NDV SCT088/// BKN170/// 20/09 Q1008

Время: 17:18 (15:18 UTC)

Прогноз

Эта сводка был подготовлена 1 час и 37 минут назад, в 13:41 UTC
Прогноз действительный с 22-го 13 UTC до 22-го 18 UTC
Ветер 8 Узел от западно-северо-западный
Видимость 10 км и более
Нет облачности ниже 1500 м, и нет кучево-дождевой облачности
временами
С 22-го 13 UTC до 22-го 18 UTC
Отдельные облака на высоте 5000 фута, Кучево-дождевые.

TAF: ENML 221341Z 2213/2218 29008KT CAVOK TEMPO 2213/2218 SCT050CB

Метеонаблюдения и прогнозы для более 4000 аэропортов (сводки METAR и TAF).

Имеющиеся станции представлены на карте желтыми и красными точками.

Чтобы увидеть название станции, наведите на нее мышь.

Затем щелкните, чтобы увидеть метеонаблюдения и метеопрогнозы.

Управление картой: чтобы увеличить масштаб, щелкните зеленые кнопки с черным крестиком; чтобы уменьшить масштаб, щелкните зеленую кнопку с тире; для просмотра соседних карт щелкайте зеленые стрелки.


METAR-TAF: